Clayton, South Dakota
Current Conditions -  °F | °C
As of 11:53 PM on Sunday 23 Nov 2014 (Local Time) from KMHE Reporting Station
Overcast Overcast  
Wind Chill: 10°   Ceiling: 2400
Heat Index: 25°   Visibility: 10mi
Dew Point: 16°   Wind: 23mph
Humidity: 69%   Direction: 330°NNW
Pressure: 29.63"   Gusts: NA
Location:  43.5283°N, 97.6775°W
Report Text: KMHE 240553Z AUTO 33020KT 10SM OVC024 M04/M09 A2963 RMK AO2 PK WND 32029/0526 SLP044 T10391089 10011 21039 400781039 56005 $
Loading
Personal Weather Stations






























Interactive Weather Map New forecast layout! Learn more

10-Day Weather Forecast

Advertisements
Track Severe Weather on mobile